Time;durP1;ratioP1;P1;durP2;ratioP2;P2;SDS_P1;SDS_P2;PMS_P1;PMS_P2;Temp;Humidity;BMP_temperature;BMP_pressure;BME280_temperature;BME280_humidity;BME280_pressure;Samples;Min_cycle;Max_cycle;Signal;HPM_P1;HPM_P2
2022/04/28 00:02:01;;;;;;;12.40;3.75;;;;;;;;;;4975185;28;20430;-77
2022/04/28 00:04:27;;;;;;;5.57;3.35;;;;;;;;;;4974237;28;20085;-76
2022/04/28 00:06:53;;;;;;;11.13;3.90;;;;;;;;;;4974972;28;20031;-77
2022/04/28 00:09:19;;;;;;;9.32;3.70;;;;;;;;;;4973704;28;20034;-77
2022/04/28 00:11:45;;;;;;;8.77;3.80;;;;;;;;;;4974649;28;20110;-77
2022/04/28 00:14:11;;;;;;;8.27;3.58;;;;;;;;;;4974956;28;20490;-77
2022/04/28 00:16:37;;;;;;;7.32;3.67;;;;;;;;;;4973820;28;20022;-77
2022/04/28 00:19:03;;;;;;;9.68;3.72;;;;;;;;;;4974692;28;20057;-76
2022/04/28 00:21:30;;;;;;;8.05;3.47;;;;;;;;;;4975297;28;20027;-76
2022/04/28 00:23:56;;;;;;;6.40;3.47;;;;;;;;;;4975194;28;20031;-77
2022/04/28 00:26:22;;;;;;;6.35;3.20;;;;;;;;;;4974493;28;20027;-77
2022/04/28 00:28:48;;;;;;;10.00;3.25;;;;;;;;;;4974676;28;20498;-77
2022/04/28 00:31:14;;;;;;;4.82;2.90;;;;;;;;;;4974883;28;20022;-77
2022/04/28 00:33:41;;;;;;;8.98;3.17;;;;;;;;;;4973843;28;20030;-77
2022/04/28 00:36:07;;;;;;;6.70;3.17;;;;;;;;;;4975168;28;20026;-77
2022/04/28 00:38:33;;;;;;;9.30;2.95;;;;;;;;;;4974074;28;20031;-77
2022/04/28 00:40:59;;;;;;;4.97;3.00;;;;;;;;;;4974433;28;20023;-77
2022/04/28 00:43:28;;;;;;;5.25;2.70;;;;;;;;;;4974622;28;20027;-77
2022/04/28 00:45:55;;;;;;;9.50;2.80;;;;;;;;;;4974491;28;20035;-77
2022/04/28 00:51:07;;;;;;;8.77;2.78;;;;;;;;;;4973665;28;20038;-77
2022/04/28 00:53:37;;;;;;;7.72;2.83;;;;;;;;;;4973642;28;20537;-77
2022/04/28 00:56:03;;;;;;;11.27;3.72;;;;;;;;;;4974388;28;20398;-77
2022/04/28 00:58:29;;;;;;;7.47;3.30;;;;;;;;;;4972871;28;20085;-77
2022/04/28 01:00:56;;;;;;;8.65;3.38;;;;;;;;;;4973980;28;20026;-77
2022/04/28 01:03:23;;;;;;;7.85;3.10;;;;;;;;;;4974196;28;20027;-77
2022/04/28 01:05:49;;;;;;;5.45;2.10;;;;;;;;;;4974338;28;20065;-77
2022/04/28 01:08:15;;;;;;;8.40;2.80;;;;;;;;;;4972900;28;20041;-77
2022/04/28 01:10:41;;;;;;;7.15;3.25;;;;;;;;;;4974106;28;20027;-77
2022/04/28 01:13:08;;;;;;;14.35;3.25;;;;;;;;;;4974279;28;20041;-77
2022/04/28 01:15:44;;;;;;;9.40;2.90;;;;;;;;;;4971853;28;20031;-77
2022/04/28 01:18:10;;;;;;;12.05;3.13;;;;;;;;;;4973919;28;20541;-76
2022/04/28 01:20:36;;;;;;;6.50;3.30;;;;;;;;;;4973768;28;20031;-77
2022/04/28 01:23:04;;;;;;;9.43;3.88;;;;;;;;;;4973731;28;20038;-77
2022/04/28 01:25:30;;;;;;;10.10;3.35;;;;;;;;;;4973841;28;20043;-77
2022/04/28 01:27:57;;;;;;;10.40;4.13;;;;;;;;;;4973710;28;20038;-77
2022/04/28 01:30:23;;;;;;;6.10;3.70;;;;;;;;;;4973752;28;20085;-77
2022/04/28 01:32:49;;;;;;;10.57;3.58;;;;;;;;;;4972655;28;20418;-77
2022/04/28 01:35:15;;;;;;;8.18;3.72;;;;;;;;;;4973526;28;20031;-76
2022/04/28 01:37:41;;;;;;;15.02;3.60;;;;;;;;;;4973434;28;20034;-77
2022/04/28 01:40:11;;;;;;;10.90;4.47;;;;;;;;;;4973480;28;20026;-77
2022/04/28 01:42:39;;;;;;;15.63;3.53;;;;;;;;;;4973285;28;20534;-77
2022/04/28 01:45:06;;;;;;;6.35;3.08;;;;;;;;;;4973583;28;20042;-77
2022/04/28 01:47:33;;;;;;;6.70;2.90;;;;;;;;;;4972785;28;20022;-77
2022/04/28 01:49:59;;;;;;;8.48;3.00;;;;;;;;;;4972202;28;20454;-77
2022/04/28 01:55:09;;;;;;;8.27;2.88;;;;;;;;;;4973515;28;20109;-77
2022/04/28 01:57:36;;;;;;;8.43;4.13;;;;;;;;;;4973395;28;20034;-77
2022/04/28 02:00:03;;;;;;;7.07;3.00;;;;;;;;;;4972969;28;20022;-77
2022/04/28 02:02:31;;;;;;;6.22;3.10;;;;;;;;;;4972483;28;20023;-77
2022/04/28 02:04:59;;;;;;;7.32;3.20;;;;;;;;;;4972572;28;20406;-77
2022/04/28 02:07:31;;;;;;;6.68;3.17;;;;;;;;;;4973839;28;20058;-77
2022/04/28 02:09:57;;;;;;;6.10;3.00;;;;;;;;;;4973212;28;20054;-77
2022/04/28 02:12:27;;;;;;;8.00;3.22;;;;;;;;;;4973188;28;20034;-77
2022/04/28 02:14:54;;;;;;;8.48;3.33;;;;;;;;;;4972612;28;20031;-77
2022/04/28 02:17:24;;;;;;;6.15;3.30;;;;;;;;;;4973273;28;20062;-77
2022/04/28 02:19:51;;;;;;;9.60;3.05;;;;;;;;;;4972892;28;20038;-76
2022/04/28 02:22:17;;;;;;;7.97;3.35;;;;;;;;;;4972288;28;20023;-76
2022/04/28 02:24:43;;;;;;;8.93;3.08;;;;;;;;;;4973560;28;20031;-77
2022/04/28 02:27:09;;;;;;;8.98;3.00;;;;;;;;;;4971710;28;20150;-76
2022/04/28 02:29:36;;;;;;;7.57;3.45;;;;;;;;;;4972613;28;20407;-77
2022/04/28 02:32:02;;;;;;;7.25;3.10;;;;;;;;;;4971523;28;20048;-76
2022/04/28 02:34:28;;;;;;;10.27;3.85;;;;;;;;;;4971708;28;20034;-77
2022/04/28 02:36:54;;;;;;;6.78;3.65;;;;;;;;;;4972067;28;20047;-77
2022/04/28 02:39:20;;;;;;;6.97;3.28;;;;;;;;;;4972150;28;20050;-77
2022/04/28 02:41:47;;;;;;;8.48;3.42;;;;;;;;;;4969346;28;20023;-77
2022/04/28 02:44:13;;;;;;;6.68;3.13;;;;;;;;;;4971006;28;20467;-77
2022/04/28 02:46:43;;;;;;;9.88;4.47;;;;;;;;;;4970886;28;20497;-76
2022/04/28 02:49:09;;;;;;;10.73;4.10;;;;;;;;;;4971762;28;20023;-77
2022/04/28 02:51:36;;;;;;;8.73;4.22;;;;;;;;;;4971861;28;20027;-77
2022/04/28 02:54:02;;;;;;;13.07;3.28;;;;;;;;;;4971781;28;20493;-77
2022/04/28 02:56:28;;;;;;;6.95;3.58;;;;;;;;;;4971502;28;20030;-77
2022/04/28 02:58:55;;;;;;;8.20;3.78;;;;;;;;;;4970991;28;20106;-76
2022/04/28 03:01:22;;;;;;;12.73;4.45;;;;;;;;;;4970699;28;20390;-77
2022/04/28 03:03:48;;;;;;;11.63;3.60;;;;;;;;;;4972124;28;20034;-77
2022/04/28 03:11:43;;;;;;;6.03;3.13;;;;;;;;;;4971438;28;20147;-77
2022/04/28 03:14:11;;;;;;;9.43;3.95;;;;;;;;;;4971245;28;20486;-76
2022/04/28 03:16:37;;;;;;;9.70;3.50;;;;;;;;;;4975561;28;20019;-77
2022/04/28 03:19:03;;;;;;;6.57;3.60;;;;;;;;;;4974134;28;20027;-76
2022/04/28 03:21:30;;;;;;;7.30;3.65;;;;;;;;;;4975127;28;20395;-77
2022/04/28 03:23:56;;;;;;;11.55;4.15;;;;;;;;;;4974363;28;20062;-77
2022/04/28 03:26:22;;;;;;;9.00;4.30;;;;;;;;;;4974477;28;20061;-77
2022/04/28 03:28:48;;;;;;;9.38;4.30;;;;;;;;;;4974634;28;20371;-77
2022/04/28 03:31:14;;;;;;;14.77;4.20;;;;;;;;;;4920411;28;1537760;-77
2022/04/28 03:33:40;;;;;;;11.48;4.80;;;;;;;;;;4975626;28;20478;-76
2022/04/28 03:36:50;;;;;;;9.57;4.20;;;;;;;;;;4974415;28;20094;-77
2022/04/28 03:38:52;;;;;;;10.35;5.05;;;;;;;;;;4975201;28;20109;-76
2022/04/28 03:41:18;;;;;;;9.23;4.82;;;;;;;;;;4975523;28;20030;-76
2022/04/28 03:43:45;;;;;;;9.02;4.63;;;;;;;;;;4975602;28;20031;-77
2022/04/28 03:46:11;;;;;;;9.57;4.63;;;;;;;;;;4975493;28;20105;-76
2022/04/28 03:48:37;;;;;;;8.05;4.38;;;;;;;;;;4975768;28;20035;-76
2022/04/28 03:51:04;;;;;;;13.82;6.63;;;;;;;;;;4975324;28;20035;-77
2022/04/28 03:53:30;;;;;;;8.50;4.75;;;;;;;;;;4975491;28;20101;-77
2022/04/28 03:55:57;;;;;;;11.55;5.47;;;;;;;;;;4975337;28;20094;-77
2022/04/28 03:58:25;;;;;;;9.93;4.68;;;;;;;;;;4974328;28;20390;-76
2022/04/28 04:00:51;;;;;;;12.82;4.93;;;;;;;;;;4975344;28;20070;-77
2022/04/28 04:03:19;;;;;;;10.15;5.72;;;;;;;;;;4975629;28;20023;-77
2022/04/28 04:05:45;;;;;;;10.57;4.68;;;;;;;;;;4975390;28;20039;-78
2022/04/28 04:08:12;;;;;;;8.48;5.07;;;;;;;;;;4974439;28;20102;-77
2022/04/28 04:10:38;;;;;;;11.32;4.68;;;;;;;;;;4973630;28;20035;-78
2022/04/28 04:13:04;;;;;;;11.18;4.88;;;;;;;;;;4972995;28;20439;-78
2022/04/28 04:15:30;;;;;;;9.70;4.95;;;;;;;;;;4974963;28;20379;-77
2022/04/28 04:17:56;;;;;;;12.52;4.90;;;;;;;;;;4974502;28;20030;-78
2022/04/28 04:20:23;;;;;;;10.48;5.22;;;;;;;;;;4955623;28;20035;-77
2022/04/28 04:22:49;;;;;;;8.77;4.50;;;;;;;;;;4955765;28;20036;-78
2022/04/28 04:25:15;;;;;;;7.38;4.25;;;;;;;;;;4955069;28;20106;-77
2022/04/28 04:27:41;;;;;;;10.05;5.10;;;;;;;;;;4955683;28;20038;-77
2022/04/28 04:32:52;;;;;;;10.00;4.93;;;;;;;;;;4974485;28;20058;-78
2022/04/28 04:35:18;;;;;;;10.82;4.32;;;;;;;;;;4959078;28;20031;-78
2022/04/28 04:37:45;;;;;;;8.25;3.85;;;;;;;;;;4955728;28;20023;-78
2022/04/28 04:40:11;;;;;;;10.52;4.38;;;;;;;;;;4973648;28;20110;-78
2022/04/28 04:42:38;;;;;;;12.05;4.75;;;;;;;;;;4974603;28;20372;-78
2022/04/28 04:45:05;;;;;;;7.97;4.30;;;;;;;;;;4974763;28;20031;-78
2022/04/28 04:47:31;;;;;;;8.90;4.57;;;;;;;;;;4974554;28;20023;-78
2022/04/28 04:49:57;;;;;;;14.27;4.80;;;;;;;;;;4974306;28;20053;-78
2022/04/28 04:52:23;;;;;;;11.32;5.13;;;;;;;;;;4974311;28;20111;-78
2022/04/28 04:54:49;;;;;;;11.25;4.80;;;;;;;;;;4974036;28;20159;-78
2022/04/28 04:57:15;;;;;;;7.63;4.15;;;;;;;;;;4974508;28;20174;-78
2022/04/28 04:59:41;;;;;;;10.70;4.65;;;;;;;;;;4974058;28;20478;-78
2022/04/28 05:02:08;;;;;;;9.45;4.22;;;;;;;;;;4972919;28;20027;-78
2022/04/28 05:04:34;;;;;;;7.57;4.32;;;;;;;;;;4972727;28;20031;-78
2022/04/28 05:07:00;;;;;;;14.57;5.18;;;;;;;;;;4973106;28;20466;-78
2022/04/28 05:09:26;;;;;;;8.75;4.05;;;;;;;;;;4973739;28;20030;-78
2022/04/28 05:11:52;;;;;;;5.53;3.40;;;;;;;;;;4972130;28;20076;-78
2022/04/28 05:14:18;;;;;;;13.15;4.10;;;;;;;;;;4972206;28;20508;-78
2022/04/28 05:16:44;;;;;;;10.82;4.00;;;;;;;;;;4973343;28;20045;-78
2022/04/28 05:19:10;;;;;;;7.88;3.95;;;;;;;;;;4973186;28;20463;-79
2022/04/28 05:21:37;;;;;;;10.20;5.22;;;;;;;;;;4973475;28;20034;-79
2022/04/28 05:24:03;;;;;;;10.40;5.10;;;;;;;;;;4972916;28;20125;-81
2022/04/28 05:26:29;;;;;;;9.07;4.68;;;;;;;;;;4973069;28;20402;-73
2022/04/28 05:28:55;;;;;;;12.70;5.28;;;;;;;;;;4973195;28;20035;-74
2022/04/28 05:31:21;;;;;;;7.38;4.15;;;;;;;;;;4972757;28;20029;-79
2022/04/28 05:33:47;;;;;;;10.77;4.78;;;;;;;;;;4971014;28;20027;-79
2022/04/28 05:36:16;;;;;;;13.02;5.07;;;;;;;;;;4971788;28;20035;-78
2022/04/28 05:38:42;;;;;;;12.02;4.55;;;;;;;;;;4972294;28;20483;-78
2022/04/28 05:41:09;;;;;;;13.50;5.10;;;;;;;;;;4972766;28;20041;-79
2022/04/28 05:46:20;;;;;;;15.13;5.07;;;;;;;;;;4971591;28;20130;-79
2022/04/28 05:48:46;;;;;;;10.88;4.60;;;;;;;;;;4972967;28;20147;-78
2022/04/28 05:51:12;;;;;;;10.60;5.35;;;;;;;;;;4972270;28;20379;-79
2022/04/28 05:53:41;;;;;;;12.65;5.53;;;;;;;;;;4972515;28;20027;-79
2022/04/28 05:56:07;;;;;;;14.27;6.05;;;;;;;;;;4972812;28;20023;-78
2022/04/28 05:58:33;;;;;;;12.07;6.63;;;;;;;;;;4973085;28;20022;-78
2022/04/28 06:01:00;;;;;;;10.63;5.40;;;;;;;;;;4972543;28;20475;-79
2022/04/28 06:03:26;;;;;;;12.90;5.93;;;;;;;;;;4972810;28;20023;-78
2022/04/28 06:05:52;;;;;;;13.10;5.82;;;;;;;;;;4973091;28;20525;-78
2022/04/28 06:08:18;;;;;;;10.20;5.10;;;;;;;;;;4973212;28;20394;-78
2022/04/28 06:10:44;;;;;;;13.27;5.85;;;;;;;;;;4973244;28;20037;-78
2022/04/28 06:13:10;;;;;;;9.15;5.30;;;;;;;;;;4973678;28;20023;-78
2022/04/28 06:15:37;;;;;;;9.98;5.22;;;;;;;;;;4973076;28;20080;-78
2022/04/28 06:18:03;;;;;;;11.55;5.75;;;;;;;;;;4973275;28;20068;-79
2022/04/28 06:20:29;;;;;;;9.77;4.78;;;;;;;;;;4972659;28;20125;-78
2022/04/28 06:22:55;;;;;;;9.40;4.95;;;;;;;;;;4973482;28;20106;-78
2022/04/28 06:25:23;;;;;;;12.82;5.60;;;;;;;;;;4973696;28;20501;-80
2022/04/28 06:27:49;;;;;;;12.23;5.30;;;;;;;;;;4972495;28;20023;-79
2022/04/28 06:30:15;;;;;;;15.00;5.95;;;;;;;;;;4971785;28;20491;-79
2022/04/28 06:32:41;;;;;;;10.23;5.60;;;;;;;;;;4971664;28;21406;-78
2022/04/28 11:00:34;;;;;;;17.23;8.38;;;;;;;;;;6060145;23;20058;-79
2022/04/28 11:03:00;;;;;;;15.63;8.55;;;;;;;;;;5000908;28;20096;-79
2022/04/28 11:05:28;;;;;;;14.15;8.45;;;;;;;;;;5002288;28;20037;-79
2022/04/28 11:07:54;;;;;;;18.85;9.68;;;;;;;;;;4996226;28;20031;-80
2022/04/28 11:10:20;;;;;;;17.10;9.32;;;;;;;;;;4996315;28;20030;-79
2022/04/28 11:12:46;;;;;;;20.23;9.80;;;;;;;;;;4996325;28;20031;-79
2022/04/28 11:15:14;;;;;;;14.63;8.80;;;;;;;;;;4995625;28;20033;-78
2022/04/28 11:17:44;;;;;;;17.67;8.77;;;;;;;;;;4996260;28;20026;-79
2022/04/28 11:20:16;;;;;;;15.75;9.70;;;;;;;;;;4996692;28;20031;-78
2022/04/28 11:22:42;;;;;;;16.85;10.00;;;;;;;;;;4996610;28;20027;-78
2022/04/28 11:25:16;;;;;;;21.80;10.18;;;;;;;;;;4996018;28;20101;-77
2022/04/28 11:27:43;;;;;;;17.15;8.32;;;;;;;;;;4993560;28;20058;-78
2022/04/28 11:30:27;;;;;;;13.88;9.27;;;;;;;;;;5015328;28;20029;-79
2022/04/28 11:32:57;;;;;;;14.95;8.38;;;;;;;;;;4998579;28;20034;-78
2022/04/28 11:35:23;;;;;;;14.00;9.68;;;;;;;;;;4993395;28;20505;-78
2022/04/28 11:37:55;;;;;;;15.43;8.77;;;;;;;;;;4995140;28;20450;-78
2022/04/28 11:40:24;;;;;;;15.32;7.97;;;;;;;;;;4994849;28;20101;-78
2022/04/28 11:42:56;;;;;;;15.65;7.95;;;;;;;;;;4994887;28;20023;-80
2022/04/28 11:45:22;;;;;;;17.55;8.88;;;;;;;;;;4995322;28;20109;-77
2022/04/28 11:47:49;;;;;;;15.05;8.75;;;;;;;;;;4994923;28;20085;-78
2022/04/28 11:50:23;;;;;;;19.35;9.40;;;;;;;;;;4994032;28;20037;-79
2022/04/28 11:52:59;;;;;;;20.10;9.90;;;;;;;;;;4993660;28;20056;-79
2022/04/28 11:55:30;;;;;;;16.02;9.50;;;;;;;;;;4994833;28;20041;-79
2022/04/28 11:57:56;;;;;;;21.37;9.00;;;;;;;;;;4994716;28;20054;-79
2022/04/28 12:00:26;;;;;;;15.43;10.23;;;;;;;;;;4994766;28;20026;-81
2022/04/28 12:02:53;;;;;;;15.48;9.15;;;;;;;;;;4994193;28;20046;-79
2022/04/28 12:05:22;;;;;;;17.17;9.23;;;;;;;;;;4995321;28;20060;-79
2022/04/28 12:07:51;;;;;;;19.70;10.45;;;;;;;;;;4993257;28;20091;-79
2022/04/28 12:15:56;;;;;;;19.05;10.85;;;;;;;;;;4994850;28;20069;-79
2022/04/28 12:21:18;;;;;;;17.30;10.38;;;;;;;;;;4994410;28;20077;-79
2022/04/28 12:23:46;;;;;;;18.90;10.07;;;;;;;;;;4994157;28;20026;-79
2022/04/28 12:26:13;;;;;;;14.77;9.10;;;;;;;;;;4994299;28;20417;-79
2022/04/28 12:28:40;;;;;;;15.50;9.55;;;;;;;;;;4993039;28;20037;-79
2022/04/28 12:31:07;;;;;;;13.77;8.98;;;;;;;;;;4994065;28;20030;-78
2022/04/28 12:33:34;;;;;;;14.32;9.45;;;;;;;;;;4994056;28;20027;-79
2022/04/28 12:36:01;;;;;;;12.63;8.60;;;;;;;;;;4993956;28;20022;-79
2022/04/28 12:38:28;;;;;;;16.98;9.35;;;;;;;;;;4992769;28;20065;-79
2022/04/28 12:40:54;;;;;;;16.50;8.90;;;;;;;;;;4993743;28;20447;-79
2022/04/28 12:43:39;;;;;;;17.73;10.40;;;;;;;;;;4993165;28;20038;-79
2022/04/28 12:46:09;;;;;;;15.75;9.60;;;;;;;;;;4994394;28;20034;-79
2022/04/28 12:48:36;;;;;;;17.60;9.32;;;;;;;;;;4992787;28;20462;-79
2022/04/28 12:51:14;;;;;;;17.08;9.45;;;;;;;;;;4992618;28;20026;-79
2022/04/28 12:53:41;;;;;;;14.40;8.68;;;;;;;;;;4993571;28;20445;-79
2022/04/28 12:56:09;;;;;;;27.27;9.23;;;;;;;;;;4992158;28;20030;-79
2022/04/28 12:58:42;;;;;;;15.15;8.65;;;;;;;;;;4993998;28;20030;-79
2022/04/28 13:01:09;;;;;;;16.85;10.18;;;;;;;;;;4993275;28;20069;-79
2022/04/28 13:03:35;;;;;;;15.20;8.15;;;;;;;;;;4993720;28;20022;-79
2022/04/28 13:06:01;;;;;;;17.55;9.20;;;;;;;;;;4993407;28;20030;-79
2022/04/28 13:08:28;;;;;;;13.60;8.43;;;;;;;;;;4987782;28;20042;-79
2022/04/28 13:10:54;;;;;;;15.45;8.63;;;;;;;;;;4990734;28;20022;-79
2022/04/28 13:13:20;;;;;;;15.32;8.60;;;;;;;;;;4992756;28;20355;-79
2022/04/28 13:15:46;;;;;;;18.33;9.52;;;;;;;;;;4992996;28;20053;-79
2022/04/28 13:18:12;;;;;;;16.90;9.02;;;;;;;;;;4992589;28;20022;-79
2022/04/28 13:20:38;;;;;;;16.05;9.88;;;;;;;;;;4992484;28;20072;-78
2022/04/28 13:23:04;;;;;;;16.90;9.70;;;;;;;;;;4992549;28;20101;-79
2022/04/28 13:25:30;;;;;;;15.43;9.02;;;;;;;;;;4992918;28;20117;-79
2022/04/28 13:27:56;;;;;;;18.83;10.27;;;;;;;;;;4992576;28;20022;-79
2022/04/28 13:30:22;;;;;;;14.80;10.07;;;;;;;;;;4992412;28;20049;-79
2022/04/28 13:32:48;;;;;;;15.98;9.32;;;;;;;;;;4992624;28;20066;-78
2022/04/28 13:35:14;;;;;;;18.70;9.20;;;;;;;;;;4992936;28;20022;-79
2022/04/28 13:37:41;;;;;;;19.75;9.40;;;;;;;;;;4992713;28;20064;-79
2022/04/28 13:40:07;;;;;;;18.35;9.55;;;;;;;;;;4991674;28;20018;-79
2022/04/28 13:42:33;;;;;;;18.63;10.30;;;;;;;;;;4993038;28;20109;-79
2022/04/28 13:44:59;;;;;;;16.17;9.57;;;;;;;;;;4991612;28;20437;-79
2022/04/28 13:47:27;;;;;;;19.38;10.45;;;;;;;;;;4993034;28;20031;-79
2022/04/28 13:49:55;;;;;;;16.45;9.77;;;;;;;;;;4993044;28;20027;-79
2022/04/28 13:52:22;;;;;;;17.05;10.10;;;;;;;;;;4992798;28;20485;-79
2022/04/28 13:54:48;;;;;;;16.95;9.27;;;;;;;;;;4992789;28;20041;-79
2022/04/28 13:57:14;;;;;;;14.82;9.50;;;;;;;;;;4993042;28;20031;-78
2022/04/28 13:59:40;;;;;;;21.10;10.40;;;;;;;;;;4990998;28;20031;-79
2022/04/28 14:02:06;;;;;;;15.30;9.68;;;;;;;;;;4992484;28;20058;-79
2022/04/28 14:04:32;;;;;;;16.83;9.80;;;;;;;;;;4992343;28;20034;-79
2022/04/28 14:06:58;;;;;;;15.88;9.68;;;;;;;;;;4992494;28;20022;-78
2022/04/28 14:09:24;;;;;;;15.02;9.35;;;;;;;;;;4992649;28;20421;-79
2022/04/28 14:11:51;;;;;;;20.30;9.52;;;;;;;;;;4992485;28;20035;-79
2022/04/28 14:14:17;;;;;;;17.52;10.15;;;;;;;;;;4991401;28;20049;-78
2022/04/28 14:16:43;;;;;;;16.73;9.80;;;;;;;;;;4992615;28;20053;-78
2022/04/28 14:19:09;;;;;;;16.17;8.98;;;;;;;;;;4991994;28;20050;-78
2022/04/28 14:21:36;;;;;;;14.50;9.20;;;;;;;;;;4993000;28;20027;-77
2022/04/28 14:24:02;;;;;;;16.65;10.20;;;;;;;;;;4991266;28;20022;-78
2022/04/28 14:26:28;;;;;;;14.57;9.43;;;;;;;;;;4992481;28;20026;-78
2022/04/28 14:28:54;;;;;;;19.75;10.13;;;;;;;;;;4991501;28;20031;-76
2022/04/28 14:31:20;;;;;;;15.73;9.32;;;;;;;;;;4992240;28;20076;-77
2022/04/28 14:33:46;;;;;;;20.48;10.13;;;;;;;;;;4992076;28;20031;-76
2022/04/28 14:36:12;;;;;;;17.55;10.15;;;;;;;;;;4992016;28;20076;-75
2022/04/28 14:38:38;;;;;;;15.77;9.77;;;;;;;;;;4992428;28;20021;-75
2022/04/28 14:41:05;;;;;;;20.27;10.30;;;;;;;;;;4992240;28;20431;-75
2022/04/28 14:43:31;;;;;;;12.77;8.90;;;;;;;;;;4992176;28;20026;-75
2022/04/28 14:45:57;;;;;;;14.80;9.40;;;;;;;;;;4992522;28;20477;-75
2022/04/28 14:48:23;;;;;;;13.73;8.77;;;;;;;;;;4992172;28;20046;-75
2022/04/28 14:53:34;;;;;;;15.13;8.48;;;;;;;;;;4992224;28;20064;-75
2022/04/28 14:56:00;;;;;;;14.50;9.55;;;;;;;;;;4992142;28;20034;-79
2022/04/28 14:58:26;;;;;;;13.20;7.97;;;;;;;;;;4992242;28;20489;-75
2022/04/28 15:00:52;;;;;;;13.68;8.82;;;;;;;;;;4991945;28;20042;-75
2022/04/28 15:03:19;;;;;;;15.82;9.85;;;;;;;;;;4991897;28;20057;-75
2022/04/28 15:05:45;;;;;;;20.23;9.15;;;;;;;;;;4991985;28;20466;-75
2022/04/28 15:08:11;;;;;;;15.95;8.50;;;;;;;;;;4990724;28;20089;-74
2022/04/28 15:10:39;;;;;;;26.13;10.55;;;;;;;;;;4993273;28;20034;-75
2022/04/28 15:13:06;;;;;;;14.32;8.05;;;;;;;;;;4995328;28;20564;-75
2022/04/28 15:15:35;;;;;;;12.95;8.40;;;;;;;;;;4995540;28;20033;-76
2022/04/28 15:18:01;;;;;;;16.77;8.82;;;;;;;;;;4995473;28;20046;-75
2022/04/28 15:20:27;;;;;;;12.90;8.48;;;;;;;;;;4995543;28;20018;-76
2022/04/28 15:22:53;;;;;;;11.80;8.23;;;;;;;;;;4995746;28;20375;-75
2022/04/28 15:25:19;;;;;;;13.05;7.80;;;;;;;;;;4995787;28;20030;-75
2022/04/28 15:27:45;;;;;;;16.40;7.82;;;;;;;;;;4995693;28;20026;-75
2022/04/28 15:30:12;;;;;;;13.82;7.90;;;;;;;;;;4995509;28;20030;-77
2022/04/28 15:32:42;;;;;;;16.25;8.43;;;;;;;;;;4992297;28;20026;-80
2022/04/28 15:35:09;;;;;;;13.25;7.85;;;;;;;;;;4995102;28;20037;-80
2022/04/28 15:37:35;;;;;;;12.02;7.90;;;;;;;;;;4995301;28;20045;-80
2022/04/28 15:40:03;;;;;;;12.60;7.97;;;;;;;;;;4995020;28;20043;-80
2022/04/28 15:42:29;;;;;;;12.93;7.90;;;;;;;;;;4994848;28;20049;-80
2022/04/28 15:44:55;;;;;;;12.95;8.23;;;;;;;;;;4994885;28;20058;-80
2022/04/28 15:47:21;;;;;;;11.50;6.25;;;;;;;;;;4994848;28;20516;-80
2022/04/28 15:49:47;;;;;;;14.35;7.38;;;;;;;;;;4995216;28;20105;-79
2022/04/28 15:52:13;;;;;;;11.60;6.90;;;;;;;;;;4994216;28;20110;-79
2022/04/28 15:54:39;;;;;;;11.65;6.82;;;;;;;;;;4989885;28;20109;-79
2022/04/28 15:57:06;;;;;;;10.15;7.05;;;;;;;;;;4993304;28;20101;-79
2022/04/28 15:59:33;;;;;;;11.55;7.07;;;;;;;;;;4993131;28;20022;-80
2022/04/28 16:01:59;;;;;;;10.07;6.85;;;;;;;;;;4992408;28;20042;-79
2022/04/28 16:04:25;;;;;;;13.70;7.47;;;;;;;;;;4993564;28;20026;-79
2022/04/28 16:06:51;;;;;;;12.57;7.40;;;;;;;;;;4994136;28;20081;-79
2022/04/28 16:09:17;;;;;;;12.65;7.68;;;;;;;;;;4993961;28;20030;-79
2022/04/28 16:11:44;;;;;;;13.07;7.32;;;;;;;;;;4986341;28;20027;-79
2022/04/28 16:14:10;;;;;;;9.85;7.15;;;;;;;;;;4994193;28;20034;-79
2022/04/28 16:16:37;;;;;;;14.43;7.57;;;;;;;;;;4992833;28;20022;-79
2022/04/28 16:19:04;;;;;;;10.77;6.68;;;;;;;;;;4993898;28;20533;-79
2022/04/28 16:21:31;;;;;;;12.13;7.40;;;;;;;;;;4993311;28;20026;-79
2022/04/28 16:23:57;;;;;;;11.88;7.00;;;;;;;;;;4993966;28;20022;-79
2022/04/28 16:26:23;;;;;;;12.98;6.15;;;;;;;;;;4993471;28;20482;-79
2022/04/28 16:28:49;;;;;;;13.02;6.72;;;;;;;;;;4994117;28;20027;-79
2022/04/28 16:31:15;;;;;;;9.40;6.30;;;;;;;;;;4991976;28;20022;-79
2022/04/28 16:33:41;;;;;;;8.43;5.97;;;;;;;;;;4991950;28;20154;-79
2022/04/28 16:36:07;;;;;;;12.52;6.57;;;;;;;;;;4993852;28;20022;-79
2022/04/28 16:38:33;;;;;;;11.70;6.10;;;;;;;;;;4993233;28;20049;-79
2022/04/28 16:41:04;;;;;;;12.38;6.07;;;;;;;;;;4992711;28;20513;-78
2022/04/28 16:43:32;;;;;;;10.50;6.22;;;;;;;;;;4992996;28;20485;-79
2022/04/28 16:45:58;;;;;;;11.60;5.65;;;;;;;;;;4993730;28;20487;-79
2022/04/28 16:48:24;;;;;;;9.73;6.07;;;;;;;;;;4992917;28;20026;-79
2022/04/28 16:50:50;;;;;;;12.48;6.13;;;;;;;;;;4993517;28;20061;-79
2022/04/28 16:53:16;;;;;;;10.30;6.45;;;;;;;;;;4993622;28;20076;-79
2022/04/28 16:55:42;;;;;;;9.23;6.10;;;;;;;;;;4992613;28;20053;-79
2022/04/28 16:58:09;;;;;;;9.88;5.57;;;;;;;;;;4992956;28;20470;-79
2022/04/28 17:00:37;;;;;;;7.60;5.60;;;;;;;;;;4992786;28;20475;-79
2022/04/28 17:05:48;;;;;;;8.85;5.25;;;;;;;;;;4992058;28;20037;-79
2022/04/28 17:08:14;;;;;;;8.32;4.90;;;;;;;;;;4992360;28;20022;-79
2022/04/28 17:10:41;;;;;;;8.60;5.28;;;;;;;;;;4992045;28;20037;-79
2022/04/28 17:13:08;;;;;;;10.43;5.80;;;;;;;;;;4994199;28;20022;-73
2022/04/28 17:15:34;;;;;;;9.77;5.25;;;;;;;;;;4991651;28;20406;-73
2022/04/28 17:18:01;;;;;;;9.18;5.95;;;;;;;;;;4993343;28;20041;-73
2022/04/28 17:20:27;;;;;;;9.43;5.80;;;;;;;;;;4992485;28;20467;-72
2022/04/28 17:22:53;;;;;;;7.97;5.38;;;;;;;;;;4993369;28;20031;-72
2022/04/28 17:25:19;;;;;;;10.23;5.65;;;;;;;;;;4993346;28;20019;-73
2022/04/28 17:27:45;;;;;;;12.57;5.97;;;;;;;;;;4992652;28;20029;-72
2022/04/28 17:30:11;;;;;;;11.13;5.93;;;;;;;;;;4990535;28;20409;-72
2022/04/28 17:32:38;;;;;;;11.48;5.97;;;;;;;;;;4992264;28;20034;-73
2022/04/28 17:35:04;;;;;;;9.93;5.88;;;;;;;;;;4992437;28;20026;-73
2022/04/28 17:37:30;;;;;;;8.40;5.57;;;;;;;;;;4992181;28;20030;-72
2022/04/28 17:39:56;;;;;;;9.13;5.60;;;;;;;;;;4992814;28;20513;-73
2022/04/28 17:42:23;;;;;;;20.52;6.78;;;;;;;;;;4992700;28;20113;-73
2022/04/28 17:44:49;;;;;;;10.77;6.10;;;;;;;;;;4992629;28;20565;-72
2022/04/28 17:47:16;;;;;;;11.77;6.55;;;;;;;;;;4992114;28;20030;-73
2022/04/28 17:49:42;;;;;;;10.98;6.55;;;;;;;;;;4992362;28;20556;-73
2022/04/28 17:52:08;;;;;;;10.52;6.35;;;;;;;;;;4991702;28;20022;-73
2022/04/28 17:54:36;;;;;;;10.63;6.00;;;;;;;;;;4992780;28;20056;-72
2022/04/28 17:59:53;;;;;;;10.27;6.18;;;;;;;;;;4992918;28;20038;-72
2022/04/28 18:02:19;;;;;;;;;;;;;;;;;;4995140;28;20046;-73
2022/04/28 18:04:46;;;;;;;10.73;5.88;;;;;;;;;;4987491;28;19931;-73
2022/04/28 18:07:12;;;;;;;10.48;6.28;;;;;;;;;;4985136;28;20019;-73
2022/04/28 18:09:39;;;;;;;11.93;6.05;;;;;;;;;;4992197;28;20087;-73
2022/04/28 18:12:05;;;;;;;10.35;6.38;;;;;;;;;;4992240;28;20022;-78
2022/04/28 18:14:31;;;;;;;8.88;5.68;;;;;;;;;;4991897;28;20523;-78
2022/04/28 18:16:57;;;;;;;10.90;6.95;;;;;;;;;;4990457;28;20084;-80
2022/04/28 18:19:24;;;;;;;8.57;6.60;;;;;;;;;;4992764;28;20049;-77
2022/04/28 18:21:51;;;;;;;12.05;6.90;;;;;;;;;;4997462;28;20031;-76
2022/04/28 18:24:17;;;;;;;8.75;6.35;;;;;;;;;;4992599;28;20022;-76
2022/04/28 18:26:44;;;;;;;13.25;6.93;;;;;;;;;;4990592;28;20034;-75
2022/04/28 18:29:14;;;;;;;10.98;6.50;;;;;;;;;;4991112;28;20031;-76
2022/04/28 18:31:40;;;;;;;10.77;6.95;;;;;;;;;;4991336;28;20034;-78
2022/04/28 18:34:07;;;;;;;10.40;6.65;;;;;;;;;;4989015;28;20422;-76
2022/04/28 18:44:48;;;;;;;10.38;7.15;;;;;;;;;;4985551;28;20065;-78
2022/04/28 18:47:14;;;;;;;11.25;7.15;;;;;;;;;;4987185;28;20430;-78
2022/04/28 18:49:41;;;;;;;11.13;7.07;;;;;;;;;;4995236;28;20026;-79
2022/04/28 18:52:09;;;;;;;11.50;6.88;;;;;;;;;;4995514;28;20093;-78
2022/04/28 18:54:36;;;;;;;11.77;6.95;;;;;;;;;;4994802;28;20069;-78
2022/04/28 18:57:02;;;;;;;12.73;7.63;;;;;;;;;;4995405;28;20108;-80
2022/04/28 18:59:28;;;;;;;12.65;7.05;;;;;;;;;;4995844;28;20502;-78
2022/04/28 19:01:55;;;;;;;12.60;7.75;;;;;;;;;;4993299;28;20410;-78
2022/04/28 19:04:26;;;;;;;12.02;7.65;;;;;;;;;;4989360;28;20132;-81
2022/04/28 19:06:55;;;;;;;12.27;7.18;;;;;;;;;;4995638;28;20030;-78
2022/04/28 19:09:22;;;;;;;12.18;7.07;;;;;;;;;;4994955;28;20026;-79
2022/04/28 19:11:48;;;;;;;9.45;6.78;;;;;;;;;;4986378;28;20033;-78
2022/04/28 19:16:59;;;;;;;11.70;6.57;;;;;;;;;;4995143;28;20033;-78
2022/04/28 19:19:26;;;;;;;14.55;7.70;;;;;;;;;;4993901;28;20393;-78
2022/04/28 19:21:52;;;;;;;10.07;6.85;;;;;;;;;;4994927;28;20023;-80
2022/04/28 19:24:19;;;;;;;13.52;6.78;;;;;;;;;;4988272;28;20058;-78
2022/04/28 19:26:45;;;;;;;11.43;7.25;;;;;;;;;;4995243;28;20026;-78
2022/04/28 19:29:11;;;;;;;13.18;6.97;;;;;;;;;;4995382;28;20029;-81
2022/04/28 19:31:37;;;;;;;10.48;6.68;;;;;;;;;;4994077;28;20045;-78
2022/04/28 19:34:04;;;;;;;9.95;6.30;;;;;;;;;;4981602;28;20031;-78
2022/04/28 19:36:30;;;;;;;9.57;6.28;;;;;;;;;;4993726;28;20038;-79
2022/04/28 19:38:57;;;;;;;11.02;6.65;;;;;;;;;;4994323;28;20482;-78
2022/04/28 19:41:23;;;;;;;11.50;6.60;;;;;;;;;;4995226;28;20129;-78